Time;durP1;ratioP1;P1;durP2;ratioP2;P2;SDS_P1;SDS_P2;PMS_P1;PMS_P2;Temp;Humidity;BMP_temperature;BMP_pressure;BME280_temperature;BME280_humidity;BME280_pressure;Samples;Min_cycle;Max_cycle;Signal;HPM_P1;HPM_P2
2023/08/25 00:02:26;;;;;;;0.80;0.60;;;21.80;99.90;;;;;;5135853;28;20808;-65
2023/08/25 00:04:54;;;;;;;1.15;0.50;;;21.90;99.90;;;;;;5116473;28;20428;-65
2023/08/25 00:07:21;;;;;;;0.80;0.50;;;21.90;99.90;;;;;;5116151;28;20874;-66
2023/08/25 00:09:48;;;;;;;0.80;0.50;;;21.90;99.90;;;;;;5132199;28;20478;-66
2023/08/25 00:12:15;;;;;;;0.70;0.50;;;21.90;99.90;;;;;;5133104;28;20426;-66
2023/08/25 00:14:42;;;;;;;1.20;0.57;;;21.90;99.90;;;;;;5114738;28;20520;-65
2023/08/25 00:17:09;;;;;;;0.80;0.60;;;21.90;99.90;;;;;;5115434;28;20432;-64
2023/08/25 00:19:36;;;;;;;1.30;0.57;;;21.90;99.90;;;;;;5113939;28;20485;-65
2023/08/25 00:22:05;;;;;;;1.80;0.60;;;21.80;99.90;;;;;;5114071;28;20847;-65
2023/08/25 00:24:32;;;;;;;0.80;0.50;;;21.80;99.90;;;;;;5115182;28;20460;-65
2023/08/25 00:26:59;;;;;;;0.90;0.50;;;21.80;99.90;;;;;;5115834;28;20714;-65
2023/08/25 00:29:26;;;;;;;0.80;0.50;;;21.80;99.90;;;;;;5135717;28;20493;-65
2023/08/25 00:31:53;;;;;;;0.80;0.50;;;21.80;99.90;;;;;;5126316;28;20452;-65
2023/08/25 00:34:20;;;;;;;0.77;0.50;;;21.80;99.90;;;;;;5114892;28;20528;-65
2023/08/25 00:36:47;;;;;;;1.80;0.40;;;21.80;99.90;;;;;;5118111;28;20418;-65
2023/08/25 00:39:16;;;;;;;0.80;0.50;;;21.80;99.90;;;;;;5135195;28;20430;-64
2023/08/25 00:41:43;;;;;;;0.90;0.60;;;21.80;99.90;;;;;;5124758;28;20948;-65
2023/08/25 00:44:10;;;;;;;0.70;0.40;;;21.80;99.90;;;;;;5115077;28;20432;-65
2023/08/25 00:46:37;;;;;;;0.70;0.50;;;21.90;99.90;;;;;;5121593;27;20493;-64
2023/08/25 00:49:04;;;;;;;0.70;0.50;;;22.00;99.90;;;;;;5118730;28;20419;-65
2023/08/25 00:51:31;;;;;;;0.70;0.50;;;22.00;99.90;;;;;;5119389;27;20438;-66
2023/08/25 00:53:59;;;;;;;2.20;0.60;;;22.00;99.90;;;;;;5118730;28;20424;-64
2023/08/25 00:56:27;;;;;;;0.70;0.40;;;22.00;99.90;;;;;;5118657;28;20435;-65
2023/08/25 00:58:55;;;;;;;0.98;0.47;;;22.00;99.90;;;;;;5119260;28;20493;-64
2023/08/25 01:01:23;;;;;;;1.40;0.50;;;22.00;99.90;;;;;;5125920;27;20522;-65
2023/08/25 01:03:50;;;;;;;1.15;0.50;;;22.00;99.90;;;;;;5135750;27;20446;-64
2023/08/25 01:06:17;;;;;;;1.13;0.50;;;22.00;99.90;;;;;;5113439;27;20421;-64
2023/08/25 01:08:44;;;;;;;0.80;0.50;;;22.00;99.90;;;;;;5118904;28;20420;-65
2023/08/25 01:11:31;;;;;;;0.80;0.50;;;22.00;99.90;;;;;;5128489;27;20430;-64
2023/08/25 01:14:07;;;;;;;1.00;0.50;;;22.00;99.90;;;;;;5136607;27;20721;-63
2023/08/25 01:16:37;;;;;;;1.90;0.50;;;22.10;99.90;;;;;;5118470;27;20531;-64
2023/08/25 01:19:06;;;;;;;0.60;0.43;;;22.10;99.90;;;;;;5117202;27;20503;-64
2023/08/25 01:21:36;;;;;;;2.50;0.57;;;22.10;99.90;;;;;;5155743;27;20795;-64
2023/08/25 01:24:13;;;;;;;0.60;0.40;;;22.10;99.90;;;;;;5150464;27;20471;-63
2023/08/25 01:26:42;;;;;;;0.95;0.50;;;22.20;99.90;;;;;;5117272;28;20439;-63
2023/08/25 01:29:09;;;;;;;0.82;0.50;;;22.10;99.90;;;;;;5117613;27;20431;-63
2023/08/25 01:31:36;;;;;;;2.40;0.50;;;22.10;99.90;;;;;;5117264;28;20432;-63
2023/08/25 01:34:03;;;;;;;0.85;0.50;;;22.20;99.90;;;;;;5117533;27;20505;-63
2023/08/25 01:36:38;;;;;;;1.15;0.50;;;22.30;99.90;;;;;;5117567;28;20465;-64
2023/08/25 01:39:08;;;;;;;0.77;0.50;;;22.40;97.80;;;;;;5119280;27;20808;-63
2023/08/25 01:41:43;;;;;;;0.70;0.50;;;22.40;99.90;;;;;;5117839;28;20521;-63
2023/08/25 01:44:13;;;;;;;1.10;0.50;;;22.30;98.00;;;;;;5122592;27;20449;-64
2023/08/25 01:46:44;;;;;;;1.10;0.50;;;22.30;97.60;;;;;;5137978;27;20426;-63
2023/08/25 01:49:13;;;;;;;0.80;0.40;;;22.40;99.50;;;;;;5131457;27;20467;-62
2023/08/25 01:51:41;;;;;;;2.30;0.50;;;22.40;91.20;;;;;;5138193;27;20414;-63
2023/08/25 01:54:08;;;;;;;1.00;0.50;;;22.40;84.60;;;;;;5124149;27;20420;-63
2023/08/25 01:56:35;;;;;;;0.60;0.40;;;22.40;89.90;;;;;;5116790;28;20428;-62
2023/08/25 01:59:04;;;;;;;1.35;0.50;;;22.30;92.90;;;;;;5116104;27;20482;-62
2023/08/25 02:01:31;;;;;;;0.90;0.50;;;22.30;90.20;;;;;;5117388;28;20477;-63
2023/08/25 02:03:58;;;;;;;0.80;0.43;;;22.30;92.60;;;;;;5120455;27;20424;-63
2023/08/25 02:06:25;;;;;;;0.70;0.50;;;22.30;92.00;;;;;;5117356;28;20404;-62
2023/08/25 02:08:52;;;;;;;1.00;0.50;;;22.20;92.80;;;;;;5144044;27;20424;-63
2023/08/25 02:11:19;;;;;;;0.77;0.50;;;22.20;92.20;;;;;;5158068;27;20417;-62
2023/08/25 02:13:46;;;;;;;0.70;0.40;;;22.20;92.50;;;;;;5132581;27;20434;-62
2023/08/25 02:16:14;;;;;;;1.30;0.50;;;22.10;99.10;;;;;;5137230;27;20429;-62
2023/08/25 02:18:41;;;;;;;0.70;0.50;;;22.10;97.00;;;;;;5132901;27;20551;-62
2023/08/25 02:21:08;;;;;;;0.80;0.43;;;22.00;99.30;;;;;;5134815;27;20414;-62
2023/08/25 02:23:35;;;;;;;1.00;0.50;;;22.10;95.20;;;;;;5133968;27;20426;-62
2023/08/25 02:26:03;;;;;;;0.80;0.50;;;22.10;95.30;;;;;;5133569;27;20438;-62
2023/08/25 02:28:30;;;;;;;0.82;0.50;;;22.10;94.50;;;;;;5116971;28;20850;-61
2023/08/25 02:30:57;;;;;;;0.87;0.53;;;22.10;96.60;;;;;;5117509;27;20850;-61
2023/08/25 02:33:25;;;;;;;1.80;0.50;;;22.00;96.40;;;;;;5116960;28;20419;-62
2023/08/25 02:35:52;;;;;;;1.15;0.40;;;22.00;94.40;;;;;;5118122;27;20515;-61
2023/08/25 02:38:19;;;;;;;0.80;0.50;;;22.00;96.80;;;;;;5137249;27;20906;-61
2023/08/25 02:40:46;;;;;;;0.80;0.40;;;22.00;94.50;;;;;;5130974;27;20838;-61
2023/08/25 02:43:13;;;;;;;1.80;0.50;;;22.10;99.80;;;;;;5116084;28;20900;-60
2023/08/25 02:45:43;;;;;;;1.27;0.50;;;22.00;94.10;;;;;;5119204;27;21044;-61
2023/08/25 02:48:10;;;;;;;0.80;0.50;;;22.10;93.10;;;;;;5116165;28;20453;-62
2023/08/25 02:50:38;;;;;;;1.00;0.50;;;22.00;95.90;;;;;;5118966;27;20422;-61
2023/08/25 02:53:05;;;;;;;0.80;0.50;;;21.90;99.90;;;;;;5116337;28;20427;-64
2023/08/25 02:55:32;;;;;;;1.60;0.50;;;21.90;99.90;;;;;;5115507;27;20431;-61
2023/08/25 02:57:59;;;;;;;1.10;0.50;;;21.80;99.90;;;;;;5115273;28;20423;-60
2023/08/25 03:00:26;;;;;;;2.40;0.50;;;21.90;99.90;;;;;;5116001;27;20858;-60
2023/08/25 03:02:54;;;;;;;0.60;0.50;;;22.00;99.90;;;;;;5116265;28;20770;-61
2023/08/25 03:05:21;;;;;;;0.90;0.50;;;22.00;99.50;;;;;;5122606;27;20503;-61
2023/08/25 03:07:52;;;;;;;1.20;0.50;;;21.90;99.90;;;;;;5135667;27;20773;-61
2023/08/25 03:10:19;;;;;;;1.10;0.50;;;21.80;99.90;;;;;;5130303;27;20462;-61
2023/08/25 03:12:46;;;;;;;0.80;0.50;;;21.80;99.90;;;;;;5135040;27;20417;-61
2023/08/25 03:15:13;;;;;;;0.80;0.50;;;21.70;99.90;;;;;;5131543;27;20494;-60
2023/08/25 03:17:41;;;;;;;2.90;0.55;;;21.60;99.90;;;;;;5136626;27;20418;-61
2023/08/25 03:20:09;;;;;;;1.20;0.50;;;21.60;99.90;;;;;;5129370;27;20426;-61
2023/08/25 03:22:36;;;;;;;1.30;0.60;;;21.70;99.90;;;;;;5134787;27;20423;-61
2023/08/25 03:25:05;;;;;;;1.30;0.50;;;21.70;99.90;;;;;;5116365;27;20432;-61
2023/08/25 03:27:34;;;;;;;1.30;0.50;;;21.70;99.90;;;;;;5112886;28;20478;-61
2023/08/25 03:30:01;;;;;;;0.70;0.50;;;21.70;99.90;;;;;;5128700;27;20422;-60
2023/08/25 03:32:28;;;;;;;1.40;0.50;;;21.80;99.90;;;;;;5133720;27;20414;-61
2023/08/25 03:34:56;;;;;;;0.80;0.60;;;21.80;98.10;;;;;;5115473;27;20428;-65
2023/08/25 03:37:23;;;;;;;1.10;0.50;;;21.80;99.90;;;;;;5115502;28;20481;-61
2023/08/25 03:39:50;;;;;;;1.10;0.50;;;21.90;94.60;;;;;;5127837;27;20464;-61
2023/08/25 03:42:18;;;;;;;0.80;0.50;;;21.90;93.60;;;;;;5134958;27;20410;-61
2023/08/25 03:44:47;;;;;;;0.85;0.57;;;21.90;93.10;;;;;;5117916;27;20436;-61
2023/08/25 03:47:14;;;;;;;1.00;0.60;;;21.90;96.20;;;;;;5115397;28;20427;-61
2023/08/25 03:49:41;;;;;;;0.80;0.40;;;21.90;96.40;;;;;;5117687;27;20427;-61
2023/08/25 03:52:08;;;;;;;0.90;0.50;;;21.90;93.90;;;;;;5115250;28;20838;-61
2023/08/25 03:54:35;;;;;;;0.80;0.50;;;21.90;96.30;;;;;;5132327;27;20445;-61
2023/08/25 03:57:03;;;;;;;1.08;0.50;;;21.80;95.20;;;;;;5132421;27;20863;-61
2023/08/25 03:59:31;;;;;;;0.90;0.60;;;22.00;97.60;;;;;;5114632;28;20531;-61
2023/08/25 04:01:59;;;;;;;0.80;0.50;;;22.00;92.90;;;;;;5116650;28;20504;-61
2023/08/25 04:04:27;;;;;;;1.30;0.50;;;22.00;92.50;;;;;;5112806;28;20459;-60
2023/08/25 04:06:54;;;;;;;1.20;0.60;;;21.90;98.60;;;;;;5113850;28;20511;-60
2023/08/25 04:09:21;;;;;;;1.00;0.50;;;21.80;99.40;;;;;;5134456;28;20779;-61
2023/08/25 04:11:48;;;;;;;1.73;0.50;;;21.80;99.90;;;;;;5128522;28;20797;-61
2023/08/25 04:14:15;;;;;;;2.80;0.60;;;21.80;99.90;;;;;;5114484;28;20420;-60
2023/08/25 04:16:44;;;;;;;1.30;0.50;;;21.70;99.90;;;;;;5115585;28;20912;-60
2023/08/25 04:19:11;;;;;;;2.10;0.60;;;21.70;99.90;;;;;;5115350;28;20427;-60
2023/08/25 04:21:38;;;;;;;1.10;0.50;;;21.70;99.90;;;;;;5123769;27;20431;-61
2023/08/25 04:24:05;;;;;;;0.70;0.50;;;21.60;99.90;;;;;;5118861;28;20415;-60
2023/08/25 04:26:32;;;;;;;1.77;0.50;;;21.60;99.90;;;;;;5122034;27;20432;-61
2023/08/25 04:28:59;;;;;;;0.90;0.50;;;21.50;99.90;;;;;;5118800;28;21080;-60
2023/08/25 04:31:26;;;;;;;0.85;0.50;;;21.50;99.90;;;;;;5121408;27;20485;-61
2023/08/25 04:33:54;;;;;;;0.90;0.55;;;21.60;99.90;;;;;;5117751;28;20446;-61
2023/08/25 04:36:21;;;;;;;1.55;0.60;;;21.50;99.90;;;;;;5124505;27;20479;-61
2023/08/25 04:38:48;;;;;;;1.30;0.50;;;21.50;99.90;;;;;;5137660;27;20509;-61
2023/08/25 04:41:15;;;;;;;1.30;0.52;;;21.40;99.90;;;;;;5131740;27;20496;-61
2023/08/25 04:43:42;;;;;;;1.20;0.60;;;21.50;99.90;;;;;;5138058;27;20499;-60
2023/08/25 04:46:10;;;;;;;3.00;0.60;;;21.60;99.90;;;;;;5131645;27;20557;-61
2023/08/25 04:48:37;;;;;;;1.60;0.60;;;21.60;99.90;;;;;;5138408;27;20906;-60
2023/08/25 04:51:06;;;;;;;0.70;0.50;;;21.40;99.90;;;;;;5126257;27;20524;-60
2023/08/25 04:53:33;;;;;;;0.80;0.60;;;21.60;99.90;;;;;;5117523;28;20508;-61
2023/08/25 04:56:00;;;;;;;1.52;0.60;;;21.50;99.90;;;;;;5129283;27;20783;-60
2023/08/25 04:58:26;;;;;;;1.00;0.70;;;21.60;97.70;;;;;;5139405;27;20829;-61
2023/08/25 05:00:54;;;;;;;1.00;0.60;;;21.50;99.90;;;;;;5132696;27;20459;-60
2023/08/25 05:03:21;;;;;;;2.88;0.60;;;21.50;99.90;;;;;;5139039;27;20655;-61
2023/08/25 05:05:48;;;;;;;1.00;0.60;;;21.50;99.90;;;;;;5132237;27;20841;-61
2023/08/25 05:08:17;;;;;;;0.80;0.60;;;21.60;99.90;;;;;;5138659;27;20767;-61
2023/08/25 05:10:44;;;;;;;1.30;0.50;;;21.60;84.00;;;;;;5104814;27;20427;-60
2023/08/25 05:13:11;;;;;;;1.90;0.60;;;21.60;53.40;;;;;;5118248;27;20420;-61
2023/08/25 05:15:38;;;;;;;1.00;0.60;;;21.70;45.30;;;;;;5117611;28;20431;-61
2023/08/25 05:18:05;;;;;;;0.90;0.60;;;21.70;39.30;;;;;;5118101;28;20481;-61
2023/08/25 05:20:32;;;;;;;1.20;0.60;;;21.70;39.30;;;;;;5119930;27;20432;-60
2023/08/25 05:22:59;;;;;;;1.67;0.57;;;21.70;46.10;;;;;;5116235;28;20420;-60
2023/08/25 05:25:28;;;;;;;0.70;0.50;;;21.80;39.30;;;;;;5117792;27;20435;-60
2023/08/25 05:27:55;;;;;;;0.98;0.60;;;21.90;34.20;;;;;;5114946;27;20412;-60
2023/08/25 05:30:22;;;;;;;1.90;0.60;;;21.90;22.20;;;;;;5132258;27;20414;-61
2023/08/25 05:32:49;;;;;;;0.80;0.60;;;22.00;27.00;;;;;;5135889;27;20430;-61
2023/08/25 05:35:16;;;;;;;0.80;0.50;;;22.10;19.80;;;;;;5118220;27;20456;-61
2023/08/25 05:37:43;;;;;;;1.10;0.60;;;22.20;15.00;;;;;;5116012;28;20508;-61
2023/08/25 05:40:12;;;;;;;1.40;0.50;;;22.30;1.00;;;;;;5135860;27;20526;-60
2023/08/25 05:42:40;;;;;;;1.70;0.60;;;22.30;1.00;;;;;;5131703;27;20420;-61
2023/08/25 05:45:08;;;;;;;1.70;0.70;;;22.40;1.00;;;;;;5138034;27;20493;-61
2023/08/25 05:47:35;;;;;;;0.80;0.60;;;22.40;1.00;;;;;;5133144;27;20432;-60
2023/08/25 05:50:03;;;;;;;1.00;0.60;;;22.50;1.30;;;;;;5138216;27;20491;-60
2023/08/25 05:52:30;;;;;;;1.30;0.60;;;22.40;1.00;;;;;;5132893;27;20877;-60
2023/08/25 05:54:57;;;;;;;1.60;0.60;;;22.50;1.00;;;;;;5137910;27;20410;-59
2023/08/25 05:57:24;;;;;;;2.20;0.60;;;22.60;1.00;;;;;;5130743;27;20458;-60
2023/08/25 05:59:52;;;;;;;2.50;0.60;;;22.70;1.00;;;;;;5116546;28;20513;-60
2023/08/25 06:02:19;;;;;;;1.30;0.50;;;22.80;1.00;;;;;;5119507;27;20466;-60
2023/08/25 06:04:46;;;;;;;1.23;0.50;;;22.90;1.00;;;;;;5115993;28;20480;-60
2023/08/25 06:07:13;;;;;;;1.05;0.52;;;23.00;1.00;;;;;;5121707;27;20823;-60
2023/08/25 06:09:40;;;;;;;1.10;0.60;;;23.10;1.00;;;;;;5135959;27;20415;-59
2023/08/25 06:12:09;;;;;;;1.10;0.60;;;23.10;1.00;;;;;;5129731;27;20483;-59
2023/08/25 06:14:36;;;;;;;2.13;0.60;;;23.00;1.00;;;;;;5135292;27;20447;-59
2023/08/25 06:17:04;;;;;;;1.50;0.55;;;22.90;1.00;;;;;;5123947;27;20432;-59
2023/08/25 06:19:31;;;;;;;1.05;0.60;;;23.00;1.00;;;;;;5115740;28;20481;-59
2023/08/25 06:21:58;;;;;;;0.75;0.50;;;23.10;1.00;;;;;;5125881;27;20430;-59
2023/08/25 06:24:25;;;;;;;2.37;0.60;;;23.20;1.00;;;;;;5136881;27;20899;-60
2023/08/25 06:26:53;;;;;;;1.10;0.60;;;23.20;1.00;;;;;;5118941;27;20738;-59
2023/08/25 06:29:20;;;;;;;1.90;0.60;;;23.20;1.00;;;;;;5114688;28;20510;-59
2023/08/25 06:31:47;;;;;;;1.00;0.60;;;23.30;1.00;;;;;;5114927;28;20428;-59
2023/08/25 06:34:15;;;;;;;1.30;0.60;;;23.40;1.00;;;;;;5115368;28;20426;-60
2023/08/25 06:36:42;;;;;;;1.30;0.60;;;23.40;1.00;;;;;;5113961;27;20432;-58
2023/08/25 06:39:09;;;;;;;2.10;0.60;;;23.40;1.00;;;;;;5108440;27;20400;-60
2023/08/25 06:41:36;;;;;;;1.67;0.60;;;23.40;1.00;;;;;;5114291;28;20428;-61
2023/08/25 06:44:03;;;;;;;1.38;0.60;;;23.40;1.00;;;;;;5114994;28;20424;-59
2023/08/25 06:46:30;;;;;;;1.55;0.65;;;23.30;1.00;;;;;;5115913;28;20421;-59
2023/08/25 06:48:58;;;;;;;1.40;0.70;;;23.30;1.00;;;;;;5116644;28;20419;-62
2023/08/25 06:51:26;;;;;;;2.10;0.67;;;23.20;1.00;;;;;;5114964;28;20440;-62
2023/08/25 06:53:53;;;;;;;1.00;0.60;;;23.10;1.00;;;;;;5115687;28;20473;-62
2023/08/25 06:56:20;;;;;;;0.95;0.70;;;23.00;1.00;;;;;;5116065;28;20460;-59
2023/08/25 06:58:48;;;;;;;1.00;0.60;;;23.00;1.00;;;;;;5098931;28;20435;-59
2023/08/25 07:01:15;;;;;;;1.02;0.60;;;23.00;11.70;;;;;;5114220;28;20855;-59
2023/08/25 07:03:42;;;;;;;1.08;0.70;;;22.80;31.00;;;;;;5115610;28;20412;-60
2023/08/25 07:06:09;;;;;;;1.07;0.60;;;22.70;58.10;;;;;;5115020;28;20416;-61
2023/08/25 07:08:37;;;;;;;1.00;0.60;;;22.60;75.10;;;;;;5115247;28;20481;-60
2023/08/25 07:11:04;;;;;;;2.20;0.70;;;22.60;57.40;;;;;;5113848;28;20427;-59
2023/08/25 07:13:32;;;;;;;0.90;0.60;;;22.60;62.50;;;;;;5115139;28;20514;-59
2023/08/25 07:15:59;;;;;;;0.82;0.60;;;22.50;73.00;;;;;;5118309;27;20885;-59
2023/08/25 07:18:26;;;;;;;1.60;0.70;;;22.30;99.90;;;;;;5129611;27;20811;-59
2023/08/25 07:20:53;;;;;;;1.30;0.63;;;22.30;99.90;;;;;;5132505;27;20430;-59
2023/08/25 07:23:20;;;;;;;1.58;0.70;;;22.10;99.90;;;;;;5114037;28;20450;-59
2023/08/25 07:25:52;;;;;;;1.00;0.60;;;22.10;99.90;;;;;;5113248;28;20507;-59
2023/08/25 07:28:19;;;;;;;0.90;0.50;;;22.10;99.90;;;;;;5112944;28;20439;-59
2023/08/25 07:30:46;;;;;;;0.88;0.70;;;22.00;99.90;;;;;;5112922;28;20484;-59
2023/08/25 07:33:13;;;;;;;1.50;0.60;;;21.70;99.90;;;;;;5115356;27;20477;-59
2023/08/25 07:35:41;;;;;;;1.00;0.60;;;21.80;99.90;;;;;;5134470;27;20414;-59
2023/08/25 07:38:09;;;;;;;0.80;0.60;;;21.70;99.90;;;;;;5134461;27;20433;-60
2023/08/25 07:40:36;;;;;;;2.37;0.60;;;21.50;99.90;;;;;;5135736;27;20433;-59
2023/08/25 07:43:04;;;;;;;1.00;0.70;;;21.40;99.90;;;;;;5135594;27;20879;-50
2023/08/25 07:45:32;;;;;;;1.80;0.80;;;21.20;99.90;;;;;;5134984;27;20684;-54
2023/08/25 07:47:59;;;;;;;0.80;0.60;;;20.90;99.90;;;;;;5135297;27;20422;-50
2023/08/25 07:50:28;;;;;;;1.88;0.70;;;20.70;99.90;;;;;;5132905;27;20448;-52
2023/08/25 07:52:55;;;;;;;2.10;0.70;;;20.50;99.90;;;;;;5113589;27;20491;-53
2023/08/25 07:55:23;;;;;;;1.40;0.80;;;20.40;99.90;;;;;;5116382;27;20847;-54
2023/08/25 07:57:50;;;;;;;1.50;0.70;;;20.30;99.90;;;;;;5118337;28;20418;-49
2023/08/25 08:00:19;;;;;;;1.25;0.70;;;20.30;99.90;;;;;;5134209;28;20490;-49
2023/08/25 08:02:48;;;;;;;1.70;0.75;;;20.30;99.90;;;;;;5134316;28;20419;-54
2023/08/25 08:05:15;;;;;;;2.00;0.70;;;20.40;99.90;;;;;;5134359;28;20418;-51
2023/08/25 08:07:43;;;;;;;1.47;0.70;;;20.30;99.90;;;;;;5135280;28;20459;-52
2023/08/25 08:10:11;;;;;;;2.60;0.70;;;20.30;99.90;;;;;;5128939;28;20420;-50
2023/08/25 08:12:38;;;;;;;1.42;0.70;;;20.30;99.90;;;;;;5114605;28;20415;-49
2023/08/25 08:15:07;;;;;;;1.05;0.65;;;20.30;99.90;;;;;;5113146;28;20900;-52
2023/08/25 08:17:35;;;;;;;1.80;0.68;;;20.30;99.90;;;;;;5113392;28;20463;-51
2023/08/25 08:20:05;;;;;;;1.30;0.80;;;20.20;99.90;;;;;;5116954;28;20427;-51
2023/08/25 08:22:32;;;;;;;1.80;0.90;;;20.20;99.90;;;;;;5113718;28;20935;-52
2023/08/25 08:24:59;;;;;;;1.20;0.80;;;20.20;99.90;;;;;;5124324;28;20426;-51
2023/08/25 08:27:26;;;;;;;1.40;0.70;;;20.20;99.90;;;;;;5134011;28;20767;-50
2023/08/25 08:29:53;;;;;;;1.30;0.70;;;20.10;99.90;;;;;;5121182;28;20459;-51
2023/08/25 08:32:21;;;;;;;1.40;0.80;;;20.10;99.90;;;;;;5114520;28;20416;-50
2023/08/25 08:34:50;;;;;;;1.40;0.70;;;20.20;99.90;;;;;;5117853;28;20438;-51
2023/08/25 08:37:17;;;;;;;1.10;0.80;;;20.00;99.90;;;;;;5114242;28;20730;-53
2023/08/25 08:39:45;;;;;;;2.03;0.70;;;20.00;99.90;;;;;;5115548;28;20469;-51
2023/08/25 08:42:14;;;;;;;1.10;0.70;;;19.90;99.90;;;;;;5111235;28;20438;-54
2023/08/25 08:44:47;;;;;;;1.67;0.80;;;19.90;99.90;;;;;;5114473;28;20432;-51
2023/08/25 08:47:16;;;;;;;1.40;0.80;;;19.90;99.90;;;;;;5111796;28;20814;-51
2023/08/25 08:49:44;;;;;;;1.20;0.70;;;19.90;99.90;;;;;;5114449;28;20439;-53
2023/08/25 08:52:13;;;;;;;2.25;0.80;;;19.90;99.90;;;;;;5111846;28;20428;-53
2023/08/25 08:54:41;;;;;;;1.00;0.70;;;19.90;99.90;;;;;;5114777;28;20424;-53
2023/08/25 08:57:09;;;;;;;1.70;0.73;;;19.90;99.90;;;;;;5111661;28;20428;-51
2023/08/25 08:59:36;;;;;;;1.02;0.70;;;19.80;99.90;;;;;;5111822;28;20488;-49
2023/08/25 09:02:05;;;;;;;1.98;0.70;;;19.90;99.90;;;;;;5113162;28;20432;-51
2023/08/25 09:04:32;;;;;;;1.40;0.70;;;20.00;99.90;;;;;;5124759;28;20430;-51
2023/08/25 09:07:01;;;;;;;2.50;0.70;;;20.00;99.90;;;;;;5121403;27;20430;-54
2023/08/25 09:09:30;;;;;;;1.10;0.70;;;20.00;99.90;;;;;;5115761;27;20424;-54
2023/08/25 09:11:57;;;;;;;2.17;0.70;;;20.10;99.90;;;;;;5121845;27;20474;-51
2023/08/25 09:14:25;;;;;;;0.90;0.60;;;20.10;99.90;;;;;;5132762;27;20439;-47
2023/08/25 09:16:56;;;;;;;2.00;0.70;;;20.20;99.90;;;;;;5134715;27;20525;-52
2023/08/25 09:19:23;;;;;;;1.10;0.70;;;20.20;99.90;;;;;;5136051;27;20529;-51
2023/08/25 09:21:50;;;;;;;2.55;0.60;;;20.30;99.90;;;;;;5132420;27;20424;-49
2023/08/25 09:24:21;;;;;;;1.50;0.80;;;20.40;99.90;;;;;;5136385;27;20423;-50
2023/08/25 09:26:51;;;;;;;1.50;0.70;;;20.40;99.90;;;;;;5126180;27;20438;-53
2023/08/25 09:29:18;;;;;;;1.40;0.70;;;20.50;99.90;;;;;;5119749;27;20424;-52
2023/08/25 09:31:46;;;;;;;1.42;0.60;;;20.60;99.90;;;;;;5117351;27;20432;-53
2023/08/25 09:34:15;;;;;;;2.20;0.70;;;20.70;99.90;;;;;;5132395;27;20808;-52
2023/08/25 09:36:53;;;;;;;1.70;0.73;;;20.80;99.90;;;;;;5128363;27;20430;-53
2023/08/25 09:39:20;;;;;;;1.10;0.80;;;20.90;99.90;;;;;;5120352;27;20420;-50
2023/08/25 09:41:49;;;;;;;1.45;0.70;;;21.00;99.90;;;;;;5127682;27;20430;-47
2023/08/25 09:44:17;;;;;;;1.00;0.70;;;21.10;99.90;;;;;;5126395;27;20450;-48
2023/08/25 09:46:44;;;;;;;1.20;0.70;;;21.30;99.90;;;;;;5114435;28;20477;-51
2023/08/25 09:49:13;;;;;;;1.10;0.63;;;21.40;99.90;;;;;;5116531;27;20435;-52
2023/08/25 09:51:42;;;;;;;1.30;0.70;;;21.50;99.90;;;;;;5119763;27;20415;-53
2023/08/25 09:54:12;;;;;;;2.20;0.70;;;21.40;99.90;;;;;;5128130;27;20741;-52
2023/08/25 09:56:41;;;;;;;1.00;0.60;;;21.60;99.90;;;;;;5129868;27;20517;-51
2023/08/25 09:59:11;;;;;;;2.60;0.70;;;21.80;99.90;;;;;;5125911;27;20889;-51
2023/08/25 10:01:40;;;;;;;1.00;0.70;;;21.90;99.90;;;;;;5113956;28;20850;-54
2023/08/25 10:04:07;;;;;;;1.05;0.70;;;22.00;99.90;;;;;;5128023;27;20423;-54
2023/08/25 10:06:37;;;;;;;1.10;0.60;;;22.20;99.90;;;;;;5122741;27;20423;-52
2023/08/25 10:09:05;;;;;;;0.90;0.60;;;22.30;99.90;;;;;;5114967;28;20564;-52
2023/08/25 10:11:37;;;;;;;1.10;0.60;;;22.30;99.90;;;;;;5132279;27;20426;-53
2023/08/25 10:14:10;;;;;;;1.80;0.63;;;22.20;99.90;;;;;;5132798;27;20811;-50
2023/08/25 10:16:41;;;;;;;1.00;0.70;;;22.20;99.90;;;;;;5134958;27;20725;-49
2023/08/25 10:19:13;;;;;;;1.00;0.60;;;22.20;99.90;;;;;;5131953;27;20852;-51
2023/08/25 10:21:43;;;;;;;1.02;0.60;;;22.20;99.90;;;;;;5132049;27;20560;-53
2023/08/25 10:24:12;;;;;;;1.10;0.60;;;22.50;99.90;;;;;;5113468;28;21025;-51
2023/08/25 10:26:39;;;;;;;1.10;0.52;;;22.80;99.90;;;;;;5115402;27;20533;-53
2023/08/25 10:29:08;;;;;;;1.10;0.63;;;22.90;99.90;;;;;;5115582;27;20432;-53
2023/08/25 10:31:36;;;;;;;1.00;0.60;;;22.80;99.90;;;;;;5113268;27;20701;-48
2023/08/25 10:34:03;;;;;;;0.90;0.60;;;22.80;99.90;;;;;;5115047;27;20430;-51
2023/08/25 10:36:30;;;;;;;0.80;0.50;;;22.70;99.90;;;;;;5121384;27;20442;-51
2023/08/25 10:39:12;;;;;;;1.00;0.70;;;22.70;99.90;;;;;;5128131;27;20523;-50
2023/08/25 10:41:43;;;;;;;2.00;0.70;;;22.70;99.90;;;;;;5113546;27;20428;-50
2023/08/25 10:44:19;;;;;;;1.55;0.60;;;22.70;99.90;;;;;;5133645;27;20462;-51
2023/08/25 10:46:50;;;;;;;0.90;0.70;;;22.70;99.90;;;;;;5130652;27;20851;-52
2023/08/25 10:49:17;;;;;;;0.90;0.60;;;22.70;99.90;;;;;;5116141;27;20436;-51
2023/08/25 10:51:44;;;;;;;1.17;0.60;;;22.80;99.90;;;;;;5117878;27;20649;-52
2023/08/25 10:54:20;;;;;;;0.80;0.60;;;22.80;99.90;;;;;;5116069;27;20755;-53
2023/08/25 10:56:47;;;;;;;1.40;0.70;;;22.70;99.90;;;;;;5116499;27;20514;-49
2023/08/25 10:59:15;;;;;;;1.53;0.70;;;22.60;99.90;;;;;;5114749;28;20424;-49
2023/08/25 11:01:57;;;;;;;1.10;0.70;;;22.60;99.90;;;;;;5120421;27;20785;-51
2023/08/25 11:04:25;;;;;;;0.80;0.60;;;22.70;99.90;;;;;;5125801;27;20629;-50
2023/08/25 11:06:54;;;;;;;1.52;0.70;;;22.80;99.90;;;;;;5118937;27;20456;-54
2023/08/25 11:09:33;;;;;;;0.80;0.60;;;22.90;99.90;;;;;;5114273;28;20423;-52
2023/08/25 11:12:03;;;;;;;1.05;0.50;;;23.00;99.90;;;;;;5120694;27;20928;-51
2023/08/25 11:14:30;;;;;;;1.20;0.60;;;23.40;99.90;;;;;;5133719;27;20423;-56
2023/08/25 11:16:59;;;;;;;1.00;0.50;;;23.40;99.90;;;;;;5124023;27;20423;-54
2023/08/25 11:19:27;;;;;;;1.10;0.65;;;23.30;99.90;;;;;;5112997;28;20423;-53
2023/08/25 11:21:59;;;;;;;1.60;0.75;;;23.20;99.90;;;;;;5117305;27;20431;-53
2023/08/25 11:24:27;;;;;;;1.00;0.70;;;23.30;99.90;;;;;;5125919;27;20847;-51
2023/08/25 11:26:54;;;;;;;1.63;0.85;;;23.40;99.90;;;;;;5122966;27;20426;-53
2023/08/25 11:29:21;;;;;;;1.17;0.70;;;23.50;99.90;;;;;;5126029;27;20434;-53
2023/08/25 11:31:48;;;;;;;1.17;0.70;;;23.60;99.90;;;;;;5114890;27;20891;-50
2023/08/25 11:34:16;;;;;;;0.80;0.60;;;23.70;99.90;;;;;;5129785;27;20431;-52
2023/08/25 11:36:43;;;;;;;1.20;0.80;;;23.90;99.90;;;;;;5133862;27;20419;-53
2023/08/25 11:39:18;;;;;;;1.60;0.70;;;24.00;99.90;;;;;;5133658;27;20468;-51
2023/08/25 11:41:45;;;;;;;1.13;0.70;;;24.00;99.90;;;;;;5127611;27;21052;-53
2023/08/25 11:44:13;;;;;;;0.95;0.60;;;24.10;99.90;;;;;;5130945;27;20507;-55
2023/08/25 11:46:40;;;;;;;0.95;0.70;;;24.20;99.90;;;;;;5129668;27;20426;-50
2023/08/25 11:49:08;;;;;;;1.95;0.70;;;24.20;99.90;;;;;;5133360;27;20410;-51
2023/08/25 11:51:36;;;;;;;1.43;0.70;;;24.10;99.90;;;;;;5124703;27;20438;-51
2023/08/25 11:54:04;;;;;;;1.70;0.70;;;24.00;99.90;;;;;;5112990;28;20418;-48
2023/08/25 11:56:31;;;;;;;1.10;0.70;;;24.10;99.90;;;;;;5111619;28;20468;-52
2023/08/25 11:58:58;;;;;;;1.60;0.70;;;24.10;99.90;;;;;;5110990;28;20493;-51
2023/08/25 12:01:32;;;;;;;1.00;0.70;;;24.10;99.90;;;;;;5112478;28;20451;-50
2023/08/25 12:03:59;;;;;;;1.00;0.80;;;24.20;99.90;;;;;;5112437;28;20426;-53
2023/08/25 12:06:26;;;;;;;1.60;0.80;;;24.40;99.90;;;;;;5120431;28;20844;-51
2023/08/25 12:08:55;;;;;;;1.20;0.73;;;24.60;98.10;;;;;;5132407;28;20414;-51
2023/08/25 12:11:22;;;;;;;1.20;0.63;;;24.60;93.60;;;;;;5125236;28;20427;-54
2023/08/25 12:13:50;;;;;;;1.00;0.70;;;24.50;96.80;;;;;;5132705;28;20414;-50
2023/08/25 12:16:19;;;;;;;1.10;0.70;;;24.60;99.10;;;;;;5131718;28;20830;-47
2023/08/25 12:18:51;;;;;;;0.90;0.70;;;24.60;95.60;;;;;;5134099;28;20418;-51
2023/08/25 12:21:19;;;;;;;1.10;0.70;;;24.70;96.50;;;;;;5126047;28;20418;-52
2023/08/25 12:23:46;;;;;;;1.10;0.80;;;24.80;85.60;;;;;;5132692;28;20820;-53
2023/08/25 12:26:14;;;;;;;1.70;0.80;;;24.70;84.30;;;;;;5126781;28;20426;-52
2023/08/25 12:28:43;;;;;;;1.60;0.70;;;24.70;91.40;;;;;;5132522;28;20478;-50
2023/08/25 12:31:10;;;;;;;2.00;0.80;;;24.70;84.20;;;;;;5127563;28;20430;-53
2023/08/25 12:33:37;;;;;;;1.38;0.80;;;24.70;84.30;;;;;;5133007;28;20882;-53
2023/08/25 12:36:05;;;;;;;1.30;0.90;;;24.70;81.80;;;;;;5097910;28;20425;-53
2023/08/25 12:38:33;;;;;;;1.00;0.70;;;24.70;73.20;;;;;;5093667;28;20481;-52
2023/08/25 12:41:00;;;;;;;1.30;0.73;;;24.90;57.60;;;;;;5098134;28;20440;-54
2023/08/25 12:43:29;;;;;;;1.50;0.80;;;24.90;66.00;;;;;;5095435;28;20520;-50
2023/08/25 12:45:57;;;;;;;0.90;0.70;;;25.00;38.40;;;;;;5097796;28;20452;-50
2023/08/25 12:48:24;;;;;;;1.10;0.80;;;25.00;36.50;;;;;;5093798;28;20437;-50
2023/08/25 12:50:51;;;;;;;1.40;0.80;;;25.00;23.90;;;;;;5112153;28;20435;-52
2023/08/25 12:53:18;;;;;;;1.40;0.70;;;25.20;34.80;;;;;;5110035;28;20430;-52